createdAt,value
2022-12-29T00:01:17.497Z,3.30
2022-12-29T00:03:47.114Z,2.47
2022-12-29T00:06:14.750Z,2.50
2022-12-29T00:08:41.853Z,3.10
2022-12-29T00:11:25.056Z,2.73
2022-12-29T00:14:11.017Z,3.00
2022-12-29T00:16:38.523Z,2.77
2022-12-29T00:19:06.092Z,3.10
2022-12-29T00:21:56.420Z,3.57
2022-12-29T00:24:23.251Z,3.10
2022-12-29T00:27:33.124Z,4.20
2022-12-29T00:30:18.815Z,3.70
2022-12-29T00:33:04.347Z,4.53
2022-12-29T00:35:36.696Z,4.13
2022-12-29T00:38:25.365Z,3.83
2022-12-29T00:41:12.153Z,4.43
2022-12-29T00:43:57.513Z,3.60
2022-12-29T00:46:24.401Z,3.30
2022-12-29T00:49:09.959Z,3.47
2022-12-29T00:51:37.115Z,3.77
2022-12-29T00:54:04.460Z,3.97
2022-12-29T00:56:35.072Z,4.47
2022-12-29T00:59:06.958Z,4.17
2022-12-29T01:01:34.730Z,4.30
2022-12-29T01:04:04.302Z,3.80
2022-12-29T01:06:32.341Z,3.43
2022-12-29T01:09:21.829Z,2.93
2022-12-29T01:11:48.672Z,3.67
2022-12-29T01:14:15.609Z,3.60
2022-12-29T01:16:42.777Z,3.90
2022-12-29T01:19:09.597Z,3.83
2022-12-29T01:21:36.535Z,3.93
2022-12-29T01:24:03.455Z,3.27
2022-12-29T01:26:30.210Z,3.73
2022-12-29T01:28:56.893Z,5.10
2022-12-29T01:31:23.881Z,4.30
2022-12-29T01:33:50.694Z,3.83
2022-12-29T01:36:18.758Z,3.60
2022-12-29T01:38:46.009Z,3.47
2022-12-29T01:41:14.919Z,4.30
2022-12-29T01:43:50.352Z,3.97
2022-12-29T01:46:25.017Z,2.80
2022-12-29T01:48:56.320Z,3.90
2022-12-29T01:51:26.018Z,4.17
2022-12-29T01:53:55.256Z,4.33
2022-12-29T01:56:22.720Z,3.60
2022-12-29T01:58:57.837Z,4.23
2022-12-29T02:01:25.037Z,3.47
2022-12-29T02:03:52.862Z,3.13
2022-12-29T02:06:33.427Z,4.50
2022-12-29T02:09:00.808Z,2.93
2022-12-29T02:11:29.623Z,3.73
2022-12-29T02:13:57.738Z,4.17
2022-12-29T02:16:27.312Z,4.13
2022-12-29T02:19:36.193Z,3.97
2022-12-29T02:22:21.589Z,3.47
2022-12-29T02:24:54.126Z,3.83
2022-12-29T02:27:30.183Z,4.60
2022-12-29T02:30:28.038Z,4.60
2022-12-29T02:33:12.980Z,4.27
2022-12-29T02:35:58.544Z,4.87
2022-12-29T02:38:45.382Z,4.20
2022-12-29T02:41:24.664Z,4.03
2022-12-29T02:43:57.488Z,3.53
2022-12-29T02:46:48.193Z,3.10
2022-12-29T02:49:28.778Z,4.70
2022-12-29T02:52:06.533Z,4.00
2022-12-29T02:54:42.869Z,4.17
2022-12-29T02:57:21.547Z,4.00
2022-12-29T02:59:53.123Z,4.67
2022-12-29T03:02:32.117Z,4.07
2022-12-29T03:05:02.068Z,3.67
2022-12-29T03:07:31.854Z,4.20
2022-12-29T03:10:04.463Z,4.97
2022-12-29T03:13:11.388Z,3.70
2022-12-29T03:16:04.959Z,4.30
2022-12-29T03:19:02.993Z,4.17
2022-12-29T03:22:01.168Z,4.13
2022-12-29T03:24:36.401Z,4.37
2022-12-29T03:27:06.238Z,5.07
2022-12-29T03:29:37.650Z,3.60
2022-12-29T03:32:05.712Z,4.13
2022-12-29T03:34:34.175Z,4.23
2022-12-29T03:37:10.704Z,3.30
2022-12-29T03:39:37.993Z,4.10
2022-12-29T03:42:10.561Z,4.00
2022-12-29T03:44:41.013Z,4.70
2022-12-29T03:47:08.706Z,4.20
2022-12-29T03:49:35.593Z,4.10
2022-12-29T03:52:02.311Z,4.37
2022-12-29T03:54:29.193Z,4.13
2022-12-29T03:56:55.984Z,3.30
2022-12-29T03:59:22.959Z,4.20
2022-12-29T04:01:49.895Z,4.60
2022-12-29T04:04:16.888Z,4.27
2022-12-29T04:06:44.438Z,4.57
2022-12-29T04:09:11.881Z,4.23
2022-12-29T04:11:38.628Z,4.77
2022-12-29T04:14:05.499Z,3.13
2022-12-29T04:16:32.382Z,4.23
2022-12-29T04:18:59.074Z,3.67
2022-12-29T04:21:25.867Z,5.40
2022-12-29T04:23:52.572Z,3.73
2022-12-29T04:26:19.347Z,3.20
2022-12-29T04:28:46.129Z,4.17
2022-12-29T04:31:13.077Z,3.77
2022-12-29T04:33:39.852Z,4.20
2022-12-29T04:36:06.811Z,4.17
2022-12-29T04:38:34.319Z,4.13
2022-12-29T04:41:01.722Z,4.20
2022-12-29T04:43:29.168Z,3.27
2022-12-29T04:45:56.225Z,3.23
2022-12-29T04:48:23.104Z,2.90
2022-12-29T04:50:50.641Z,3.63
2022-12-29T04:53:18.536Z,3.20
2022-12-29T04:55:45.406Z,3.63
2022-12-29T04:58:15.153Z,3.77
2022-12-29T05:00:44.356Z,3.03
2022-12-29T05:03:11.396Z,3.43
2022-12-29T05:05:38.240Z,3.07
2022-12-29T05:08:05.287Z,3.00
2022-12-29T05:10:32.048Z,2.60
2022-12-29T05:12:59.586Z,3.83
2022-12-29T05:15:26.460Z,2.70
2022-12-29T05:17:53.283Z,3.27
2022-12-29T05:20:20.420Z,3.23
2022-12-29T05:22:47.185Z,2.33
2022-12-29T05:25:13.975Z,2.47
2022-12-29T05:27:41.387Z,3.23
2022-12-29T05:30:08.671Z,2.07
2022-12-29T05:32:35.973Z,2.00
2022-12-29T05:35:02.839Z,2.80
2022-12-29T05:37:29.679Z,2.00
2022-12-29T05:39:56.406Z,2.00
2022-12-29T05:42:23.114Z,1.70
2022-12-29T05:44:53.038Z,1.77
2022-12-29T05:47:19.789Z,2.50
2022-12-29T05:49:46.504Z,1.63
2022-12-29T05:52:13.289Z,1.80
2022-12-29T05:54:40.013Z,2.13
2022-12-29T05:57:06.750Z,2.00
2022-12-29T05:59:33.602Z,2.00
2022-12-29T06:02:00.580Z,1.97
2022-12-29T06:04:27.473Z,1.23
2022-12-29T06:06:54.225Z,1.20
2022-12-29T06:09:20.928Z,1.50
2022-12-29T06:11:47.649Z,1.60
2022-12-29T06:14:14.362Z,1.83
2022-12-29T06:16:41.146Z,1.70
2022-12-29T06:19:08.030Z,1.80
2022-12-29T06:21:34.929Z,1.80
2022-12-29T06:24:01.707Z,1.80
2022-12-29T06:26:28.469Z,1.43
2022-12-29T06:28:55.296Z,1.67
2022-12-29T06:31:22.259Z,1.43
2022-12-29T06:33:50.225Z,1.93
2022-12-29T06:36:17.161Z,2.37
2022-12-29T06:38:44.299Z,1.50
2022-12-29T06:41:11.172Z,1.60
2022-12-29T06:43:39.320Z,2.10
2022-12-29T06:46:06.756Z,2.03
2022-12-29T06:48:33.624Z,1.87
2022-12-29T06:51:00.464Z,1.50
2022-12-29T06:53:27.682Z,2.00
2022-12-29T06:55:54.742Z,1.80
2022-12-29T06:58:21.569Z,3.07
2022-12-29T07:00:49.343Z,1.47
2022-12-29T07:03:16.381Z,2.20
2022-12-29T07:05:43.931Z,2.33
2022-12-29T07:08:10.647Z,3.23
2022-12-29T07:10:37.503Z,1.80
2022-12-29T07:13:04.343Z,1.97
2022-12-29T07:15:31.045Z,1.97
2022-12-29T07:17:57.764Z,2.07
2022-12-29T07:20:27.011Z,1.80
2022-12-29T07:22:54.243Z,2.27
2022-12-29T07:25:21.004Z,1.80
2022-12-29T07:27:47.877Z,1.70
2022-12-29T07:30:14.651Z,1.40
2022-12-29T07:32:42.032Z,1.70
2022-12-29T07:35:09.539Z,2.00
2022-12-29T07:37:36.371Z,1.93
2022-12-29T07:40:04.410Z,1.80
2022-12-29T07:42:32.462Z,2.27
2022-12-29T07:44:59.217Z,1.60
2022-12-29T07:47:26.433Z,2.20
2022-12-29T07:49:53.291Z,2.10
2022-12-29T07:52:20.066Z,1.80
2022-12-29T07:54:46.918Z,1.97
2022-12-29T07:57:13.704Z,1.53
2022-12-29T07:59:40.497Z,1.30
2022-12-29T08:02:10.481Z,1.57
2022-12-29T08:04:37.345Z,1.97
2022-12-29T08:07:04.153Z,3.07
2022-12-29T08:09:30.959Z,2.00
2022-12-29T08:11:57.771Z,2.00
2022-12-29T08:14:24.724Z,1.50
2022-12-29T08:16:51.603Z,1.63
2022-12-29T08:19:18.602Z,1.83
2022-12-29T08:21:45.307Z,2.23
2022-12-29T08:24:12.169Z,1.37
2022-12-29T08:26:39.459Z,1.83
2022-12-29T08:29:06.264Z,1.93
2022-12-29T08:31:33.224Z,1.60
2022-12-29T08:34:01.031Z,1.63
2022-12-29T08:36:27.877Z,1.57
2022-12-29T08:38:54.651Z,2.03
2022-12-29T08:41:21.466Z,1.70
2022-12-29T08:43:49.048Z,1.90
2022-12-29T08:46:16.904Z,1.93
2022-12-29T08:48:44.098Z,1.83
2022-12-29T08:51:10.940Z,1.97
2022-12-29T08:53:37.735Z,1.90
2022-12-29T08:56:05.856Z,1.93
2022-12-29T08:58:33.054Z,2.03
2022-12-29T09:01:00.537Z,1.83
2022-12-29T09:06:16.564Z,2.30
2022-12-29T09:08:43.672Z,2.20
2022-12-29T09:11:15.800Z,2.30
2022-12-29T09:13:42.713Z,2.47
2022-12-29T09:16:09.698Z,2.50
2022-12-29T09:18:37.344Z,2.43
2022-12-29T09:21:06.119Z,2.73
2022-12-29T09:23:33.954Z,2.30
2022-12-29T09:26:01.118Z,2.10
2022-12-29T09:28:29.914Z,2.63
2022-12-29T09:30:58.196Z,2.73
2022-12-29T09:33:25.425Z,2.73
2022-12-29T09:35:57.849Z,2.20
2022-12-29T09:38:26.444Z,2.63
2022-12-29T09:40:59.433Z,2.13
2022-12-29T09:43:35.421Z,2.10
2022-12-29T09:46:05.315Z,2.20
2022-12-29T09:48:41.053Z,1.83
2022-12-29T09:51:14.129Z,1.80
2022-12-29T09:53:48.320Z,1.83
2022-12-29T09:56:22.161Z,1.90
2022-12-29T09:59:14.318Z,1.97
2022-12-29T10:02:01.082Z,1.93
2022-12-29T10:04:29.209Z,1.93
2022-12-29T10:07:29.014Z,2.03
2022-12-29T10:10:07.428Z,1.20
2022-12-29T10:12:53.187Z,1.07
2022-12-29T10:15:38.018Z,1.10
2022-12-29T10:18:17.016Z,0.93
2022-12-29T10:21:01.923Z,0.80
2022-12-29T10:23:40.017Z,0.80
2022-12-29T10:26:29.092Z,0.70
2022-12-29T10:28:58.736Z,1.23
2022-12-29T10:31:39.775Z,0.73
2022-12-29T10:34:23.051Z,1.03
2022-12-29T10:36:54.361Z,0.90
2022-12-29T10:39:27.864Z,0.67
2022-12-29T10:42:03.015Z,0.80
2022-12-29T10:44:32.450Z,0.70
2022-12-29T10:47:05.828Z,0.80
2022-12-29T10:49:35.953Z,1.20
2022-12-29T10:52:05.131Z,1.00
2022-12-29T10:54:34.849Z,0.70
2022-12-29T10:57:12.154Z,1.00
2022-12-29T10:59:40.094Z,0.90
2022-12-29T11:02:13.150Z,1.80
2022-12-29T11:05:09.975Z,0.80
2022-12-29T11:07:37.746Z,1.30
2022-12-29T11:10:30.185Z,0.90
2022-12-29T11:13:03.092Z,1.67
2022-12-29T11:15:43.832Z,1.30
2022-12-29T11:18:24.311Z,1.20
2022-12-29T11:20:57.374Z,1.27
2022-12-29T11:23:29.966Z,1.03
2022-12-29T11:26:14.928Z,1.87
2022-12-29T11:28:44.095Z,1.53
2022-12-29T11:31:12.208Z,2.17
2022-12-29T11:33:40.352Z,1.80
2022-12-29T11:36:14.825Z,2.17
2022-12-29T11:38:53.185Z,1.80
2022-12-29T11:41:29.502Z,2.03
2022-12-29T11:44:03.373Z,2.77
2022-12-29T11:46:37.532Z,2.50
2022-12-29T11:49:05.294Z,2.23
2022-12-29T11:51:41.079Z,1.87
2022-12-29T11:54:08.327Z,2.80
2022-12-29T11:56:42.453Z,2.53
2022-12-29T11:59:37.613Z,1.70
2022-12-29T12:02:23.001Z,3.00
2022-12-29T12:04:55.017Z,2.77
2022-12-29T12:07:38.806Z,2.67
2022-12-29T12:10:27.818Z,2.83
2022-12-29T12:13:15.720Z,2.53
2022-12-29T12:15:52.865Z,3.33
2022-12-29T12:18:46.033Z,2.90
2022-12-29T12:21:38.139Z,2.37
2022-12-29T12:24:32.906Z,3.47
2022-12-29T12:27:17.804Z,3.03
2022-12-29T12:30:00.850Z,3.00
2022-12-29T12:33:01.992Z,3.23
2022-12-29T12:35:54.297Z,3.30
2022-12-29T12:38:39.079Z,3.73
2022-12-29T12:41:28.174Z,2.93
2022-12-29T12:44:13.680Z,2.97
2022-12-29T12:47:06.362Z,3.17
2022-12-29T12:50:00.192Z,2.87
2022-12-29T12:52:54.772Z,2.53
2022-12-29T12:55:40.837Z,2.80
2022-12-29T12:58:32.769Z,3.17
2022-12-29T13:01:36.545Z,2.63
2022-12-29T13:04:29.398Z,3.00
2022-12-29T13:07:07.890Z,3.20
2022-12-29T13:09:46.953Z,3.27
2022-12-29T13:12:26.384Z,2.40
2022-12-29T13:15:20.324Z,2.23
2022-12-29T13:17:49.880Z,2.60
2022-12-29T13:20:25.394Z,2.20
2022-12-29T13:23:17.066Z,2.33
2022-12-29T13:25:52.458Z,2.33
2022-12-29T13:28:40.180Z,2.30
2022-12-29T13:31:42.488Z,2.00
2022-12-29T13:34:44.712Z,1.87
2022-12-29T13:37:16.217Z,2.20
2022-12-29T13:39:49.033Z,2.20
2022-12-29T13:42:18.787Z,2.00
2022-12-29T13:44:55.462Z,2.20
2022-12-29T13:47:29.834Z,1.97
2022-12-29T13:50:00.101Z,2.23
2022-12-29T13:53:13.339Z,2.07
2022-12-29T13:56:11.263Z,2.10
2022-12-29T13:59:05.562Z,2.33
2022-12-29T14:01:38.624Z,2.13
2022-12-29T14:04:14.042Z,1.90
2022-12-29T14:06:41.905Z,1.80
2022-12-29T14:09:35.583Z,2.63
2022-12-29T14:12:02.660Z,1.63
2022-12-29T14:14:33.075Z,2.83
2022-12-29T14:17:14.752Z,2.80
2022-12-29T14:19:44.785Z,2.43
2022-12-29T14:22:12.640Z,2.20
2022-12-29T14:24:42.861Z,2.60
2022-12-29T14:27:13.073Z,1.80
2022-12-29T14:29:39.838Z,3.03
2022-12-29T14:32:27.678Z,1.80
2022-12-29T14:34:56.413Z,1.97
2022-12-29T14:37:26.832Z,1.90
2022-12-29T14:40:19.203Z,2.73
2022-12-29T14:42:50.589Z,1.60
2022-12-29T14:45:17.699Z,1.90
2022-12-29T14:47:46.714Z,1.47
2022-12-29T14:50:19.200Z,1.63
2022-12-29T14:53:02.115Z,1.63
2022-12-29T14:55:50.780Z,2.03
2022-12-29T14:58:20.072Z,2.33
2022-12-29T15:00:47.779Z,1.87
2022-12-29T15:03:37.916Z,2.20
2022-12-29T15:06:18.050Z,2.37
2022-12-29T15:08:53.784Z,2.50
2022-12-29T15:11:51.941Z,2.10
2022-12-29T15:14:40.496Z,2.67
2022-12-29T15:17:29.228Z,2.00
2022-12-29T15:20:01.213Z,1.80
2022-12-29T15:22:29.213Z,2.53
2022-12-29T15:24:57.846Z,1.57
2022-12-29T15:27:26.611Z,2.60
2022-12-29T15:30:04.768Z,2.73
2022-12-29T15:32:41.934Z,2.30
2022-12-29T15:35:32.393Z,1.90
2022-12-29T15:38:04.318Z,2.50
2022-12-29T15:40:33.317Z,2.57
2022-12-29T15:43:21.789Z,3.30
2022-12-29T15:45:51.809Z,2.07
2022-12-29T15:48:24.654Z,2.33
2022-12-29T15:50:52.335Z,2.20
2022-12-29T15:53:36.903Z,2.67
2022-12-29T15:56:09.826Z,2.00
2022-12-29T15:58:49.647Z,2.90
2022-12-29T16:01:36.523Z,2.37
2022-12-29T16:04:10.185Z,2.40
2022-12-29T16:06:44.867Z,2.63
2022-12-29T16:09:16.499Z,2.27
2022-12-29T16:11:54.436Z,2.50
2022-12-29T16:14:29.781Z,3.03
2022-12-29T16:17:03.565Z,2.50
2022-12-29T16:19:43.588Z,2.37
2022-12-29T16:22:13.428Z,3.53
2022-12-29T16:24:42.012Z,2.73
2022-12-29T16:27:16.779Z,2.50
2022-12-29T16:29:44.515Z,2.67
2022-12-29T16:32:32.184Z,2.40
2022-12-29T16:35:12.627Z,2.03
2022-12-29T16:37:40.283Z,2.40
2022-12-29T16:40:19.529Z,2.90
2022-12-29T16:42:51.370Z,2.47
2022-12-29T16:45:25.066Z,2.47
2022-12-29T16:48:07.055Z,2.37
2022-12-29T16:50:36.358Z,2.60
2022-12-29T16:53:04.365Z,2.27
2022-12-29T16:55:31.823Z,2.50
2022-12-29T16:58:01.168Z,2.27
2022-12-29T17:00:35.537Z,2.23
2022-12-29T17:03:04.089Z,2.27
2022-12-29T17:05:31.044Z,2.47
2022-12-29T17:08:01.752Z,2.70
2022-12-29T17:10:49.018Z,2.60
2022-12-29T17:13:15.792Z,2.47
2022-12-29T17:15:43.016Z,2.90
2022-12-29T17:18:13.862Z,2.70
2022-12-29T17:20:42.284Z,2.40
2022-12-29T17:23:22.798Z,2.23
2022-12-29T17:25:51.853Z,2.37
2022-12-29T17:28:25.594Z,2.10
2022-12-29T17:30:55.659Z,2.60
2022-12-29T17:33:22.587Z,3.33
2022-12-29T17:35:55.235Z,2.93
2022-12-29T17:38:23.839Z,2.33
2022-12-29T17:40:51.344Z,3.10
2022-12-29T17:43:18.383Z,2.80
2022-12-29T17:45:51.075Z,2.57
2022-12-29T17:48:19.670Z,4.00
2022-12-29T17:50:52.862Z,1.90
2022-12-29T17:53:30.418Z,2.00
2022-12-29T17:55:57.247Z,2.47
2022-12-29T17:58:27.130Z,2.60
2022-12-29T18:00:57.528Z,2.50
2022-12-29T18:03:32.743Z,2.50
2022-12-29T18:06:00.505Z,2.83
2022-12-29T18:08:29.417Z,2.33
2022-12-29T18:10:56.728Z,2.30
2022-12-29T18:13:33.600Z,2.20
2022-12-29T18:16:06.396Z,2.57
2022-12-29T18:18:33.193Z,2.60
2022-12-29T18:21:00.710Z,2.50
2022-12-29T18:23:32.267Z,2.13
2022-12-29T18:26:25.511Z,2.43
2022-12-29T18:28:57.511Z,2.80
2022-12-29T18:31:27.237Z,2.37
2022-12-29T18:33:56.435Z,2.00
2022-12-29T18:36:24.789Z,3.03
2022-12-29T18:38:56.085Z,3.17
2022-12-29T18:41:34.439Z,2.70
2022-12-29T18:44:01.438Z,2.40
2022-12-29T18:46:31.370Z,2.27
2022-12-29T18:48:58.174Z,2.90
2022-12-29T18:51:25.912Z,2.90
2022-12-29T18:53:55.631Z,2.80
2022-12-29T18:56:23.542Z,2.23
2022-12-29T18:58:50.915Z,2.27
2022-12-29T19:01:23.705Z,2.97
2022-12-29T19:03:51.292Z,2.47
2022-12-29T19:06:19.077Z,3.30
2022-12-29T19:08:45.880Z,2.90
2022-12-29T19:11:12.925Z,3.47
2022-12-29T19:13:40.490Z,2.97
2022-12-29T19:16:09.330Z,3.33
2022-12-29T19:18:45.078Z,3.10
2022-12-29T19:21:13.882Z,3.03
2022-12-29T19:23:41.448Z,3.20
2022-12-29T19:26:28.656Z,3.17
2022-12-29T19:28:55.617Z,2.87
2022-12-29T19:31:22.567Z,3.53
2022-12-29T19:33:49.463Z,2.87
2022-12-29T19:36:17.033Z,3.30
2022-12-29T19:38:45.177Z,2.80
2022-12-29T19:41:13.189Z,2.97
2022-12-29T19:43:41.481Z,2.80
2022-12-29T19:46:10.461Z,2.57
2022-12-29T19:48:37.497Z,2.50
2022-12-29T19:51:18.597Z,2.77
2022-12-29T19:53:46.861Z,2.80
2022-12-29T19:56:14.613Z,2.70
2022-12-29T19:58:46.982Z,2.67
2022-12-29T20:01:17.892Z,3.20
2022-12-29T20:03:44.890Z,2.77
2022-12-29T20:06:12.718Z,2.60
2022-12-29T20:08:40.545Z,2.53
2022-12-29T20:11:14.570Z,2.97
2022-12-29T20:13:43.414Z,2.13
2022-12-29T20:16:14.872Z,2.47
2022-12-29T20:18:42.434Z,2.50
2022-12-29T20:21:15.705Z,2.60
2022-12-29T20:23:43.875Z,2.50
2022-12-29T20:26:23.586Z,2.60
2022-12-29T20:28:52.179Z,2.30
2022-12-29T20:31:23.924Z,3.67
2022-12-29T20:33:51.014Z,3.20
2022-12-29T20:36:21.453Z,2.57
2022-12-29T20:38:49.590Z,3.00
2022-12-29T20:41:17.579Z,4.20
2022-12-29T20:43:44.904Z,2.97
2022-12-29T20:46:19.570Z,2.43
2022-12-29T20:48:48.539Z,2.70
2022-12-29T20:51:15.796Z,2.53
2022-12-29T20:53:42.915Z,2.23
2022-12-29T20:56:15.109Z,2.87
2022-12-29T20:59:17.164Z,3.07
2022-12-29T21:01:28.958Z,2.40
2022-12-29T21:03:56.444Z,3.70
2022-12-29T21:06:23.303Z,2.00
2022-12-29T21:08:51.022Z,2.57
2022-12-29T21:11:19.014Z,2.60
2022-12-29T21:13:45.777Z,2.20
2022-12-29T21:16:14.094Z,2.73
2022-12-29T21:18:44.550Z,2.67
2022-12-29T21:21:23.403Z,2.77
2022-12-29T21:23:51.546Z,2.90
2022-12-29T21:26:24.298Z,1.93
2022-12-29T21:28:52.000Z,2.93
2022-12-29T21:31:33.442Z,2.37
2022-12-29T21:34:01.405Z,2.20
2022-12-29T21:36:28.866Z,3.10
2022-12-29T21:38:56.034Z,2.40
2022-12-29T21:41:23.155Z,3.23
2022-12-29T21:44:09.250Z,2.63
2022-12-29T21:46:39.509Z,2.23
2022-12-29T21:49:07.446Z,2.40
2022-12-29T21:51:50.224Z,2.90
2022-12-29T21:54:47.078Z,2.53
2022-12-29T21:57:35.921Z,3.10
2022-12-29T22:00:23.042Z,2.60
2022-12-29T22:03:10.191Z,2.47
2022-12-29T22:06:02.377Z,3.00
2022-12-29T22:08:48.169Z,2.97
2022-12-29T22:11:33.854Z,3.10
2022-12-29T22:14:01.926Z,2.93
2022-12-29T22:16:28.788Z,2.50
2022-12-29T22:18:56.681Z,2.83
2022-12-29T22:21:26.826Z,3.30
2022-12-29T22:23:55.228Z,2.60
2022-12-29T22:26:21.993Z,2.67
2022-12-29T22:28:51.983Z,2.47
2022-12-29T22:31:30.160Z,2.17
2022-12-29T22:33:58.277Z,2.53
2022-12-29T22:36:26.634Z,4.30
2022-12-29T22:38:53.815Z,2.97
2022-12-29T22:41:21.392Z,2.97
2022-12-29T22:43:50.659Z,3.07
2022-12-29T22:46:17.575Z,3.27
2022-12-29T22:48:44.422Z,3.00
2022-12-29T22:51:12.462Z,2.97
2022-12-29T22:53:41.186Z,2.70
2022-12-29T22:56:12.007Z,3.10
2022-12-29T22:58:43.821Z,2.63
2022-12-29T23:01:13.315Z,2.40
2022-12-29T23:03:40.750Z,2.70
2022-12-29T23:06:09.280Z,2.53
2022-12-29T23:08:38.298Z,3.17
2022-12-29T23:11:07.843Z,2.57
2022-12-29T23:13:35.398Z,2.83
2022-12-29T23:16:02.998Z,2.33
2022-12-29T23:18:30.301Z,3.80
2022-12-29T23:20:57.257Z,3.77
2022-12-29T23:23:48.908Z,3.87
2022-12-29T23:26:17.839Z,4.00
2022-12-29T23:28:45.447Z,3.50
2022-12-29T23:31:12.448Z,2.77
2022-12-29T23:33:40.011Z,2.60
2022-12-29T23:36:08.557Z,2.40
2022-12-29T23:38:36.843Z,2.53
2022-12-29T23:41:03.835Z,2.43
2022-12-29T23:43:30.832Z,2.50
2022-12-29T23:45:57.700Z,3.53
2022-12-29T23:48:24.792Z,2.63
2022-12-29T23:50:51.707Z,2.37
2022-12-29T23:53:18.526Z,2.83
2022-12-29T23:55:52.051Z,2.70
2022-12-29T23:58:18.748Z,2.57
